Sunday’s Quakes

The timing and the magnitude of the quakes this weekend will depend on the behaviour of the storms below. In turn the behaviour of the storms will depend on the earthquakes.

Neither phenomena causes the other yet the above is true. About all we can work out from this is the timing of the quakes and of course the location form the behaviours of whichever storm or storms it is that decreases.

And if the forecasts for the storms are as accurate as possible that degree of possibility applies to the location finding. The quake will be so many degrees from the epicentre as the relationship allows. It remains to be seen just how this ratio works.

From Unisys as of 00:52, 4 October 2014.
From: 03 Oct 2014 Tropical Storm 19W
Latitude Longitude Knots Category
10/03/09Z 8.00 160.10 TD
10/02/18Z 7.80 160.50 30 TD
10/03/09Z 8.00 160.10 TD
10/03/14Z 8.30 159.00 TD
10/03/00Z 8.00 159.50 35 TS
10/03/06Z 8.30 158.50 35 TS
10/03/20Z 8.60 158.00 TD
10/04/02Z 9.10 157.00 TD
http://weather.unisys.com/hurricane/w_pacific/2014/19W/track.dat
From: 3 Oct 2014 Tropical Storm Vonfong
Latitude Longitude Knots Category
10/03/09Z 8.00 160.10 TD
10/02/18Z 7.80 160.50 30 TD
10/03/00Z 8.00 159.50 35 TS
10/03/06Z 8.30 158.50 35 TS
10/04/02Z 9.10 157.00 TD
10/03/18Z 9.10 156.30 45 TS
Forecast
10/04/06Z 10.20 154.30 50 TS
10/04/18Z 11.20 152.10 60 TS
10/05/06Z 12.40 149.80 70 Typhoon
10/05/18Z 13.60 147.30 75 Typhoon
10/06/18Z 16.40 142.50 90 Typhoon
http://weather.unisys.com/hurricane/w_pacific/2014/VONGFONG/track.dat
From: 28 Sept 2014 Typhoon Phanfone
Latitude Longitude Knots Category
09/28/18Z 12.40 153.30 25 TD
09/29/00Z 12.50 152.20 35 TS
09/29/06Z 13.20 151.00 35 TS
09/29/12Z 13.50 150.10 40 TS
09/29/18Z 14.10 149.50 45 TS
09/30/00Z 15.40 148.30 45 TS
09/30/06Z 16.60 147.20 40 TS
09/30/12Z 16.90 145.50 45 TS
09/30/18Z 16.90 144.40 50 TS
10/01/00Z 16.70 143.60 65 Typhoon
10/01/06Z 18.00 142.50 65 Typhoon
10/01/12Z 19.00 141.40 70 Typhoon
10/01/18Z 18.90 140.30 75 Typhoon
10/02/00Z 19.50 139.00 105 Typhoon
10/02/06Z 19.80 138.20 115 Typhoon
10/02/12Z 20.60 137.40 110 Typhoon
10/02/18Z 21.70 136.30 110 Typhoon
10/03/00Z 22.20 135.60 110 Typhoon
10/03/06Z 23.20 134.70 110 Typhoon
10/03/12Z 24.00 134.00 105 Typhoon
10/03/18Z 24.70 133.40 115 Typhoon
Forecast
10/04/06Z 26.60 132.70 120 Typhoon
10/04/18Z 28.80 132.90 120 Typhoon
10/05/06Z 31.20 134.80 100 Typhoon
10/05/18Z 33.60 139.20 75 Typhoon
10/06/18Z 37.80 149.30 50 TS
http://weather.unisys.com/hurricane/w_pacific/2014/PHANFONE/track.dat
From: 1 Oct 2014 01 OCT Tropical Storm SIMON
Latitude Longitude Knots Category
10/01/18Z 17.10 -104.00 25 TD
10/02/00Z 17.60 -105.00 30 TD
10/02/09Z 18.10 -106.10 35 TS
10/02/12Z 18.30 -106.70 35 TS
10/02/18Z 18.40 -107.60 45 TS
10/03/00Z 18.10 -107.90 45 TS
10/03/06Z 18.20 -108.40 45 TS
10/03/12Z 18.40 -109.30 45 TS
10/03/21Z 18.80 -110.60 55 TS
Forecast
10/04/06Z 19.20 -112.20 65 Hurricane
10/04/18Z 20.00 -114.30 75 Hurricane
10/05/06Z 20.90 -115.60 80 Hurricane
10/05/18Z 21.90 -116.40 80 Hurricane
10/06/18Z 23.50 -116.50 65 Hurricane
10/07/18Z 24.50 -116.00 50 TS
10/08/18Z 25.50 -115.50 35 TS
http://weather.unisys.com/hurricane/e_pacific/2014/SIMON/track.dat

As well as the possibilities of the tropical storm forecasts giving us locations we can suppose the latest weather charts will do so too. However it is late and I am not going to bother my pretty little head filling in the web page with the collection in my hard drive. If it will wait 5 minutes it will wait 5 hours.

Yours truly is going to bed.

Advertisements

Leave a Reply

Fill in your details below or click an icon to log in:

WordPress.com Logo

You are commenting using your WordPress.com account. Log Out / Change )

Twitter picture

You are commenting using your Twitter account. Log Out / Change )

Facebook photo

You are commenting using your Facebook account. Log Out / Change )

Google+ photo

You are commenting using your Google+ account. Log Out / Change )

Connecting to %s